This is the latest recevied weather packets stored in our database for station/object KF4PPJ. If no packets are shown the sender has not sent any weather packets the latest 10 day(s).
| Time | Temp. | Humidity | Pressure | Rain* | Wind** | Luminosity | Snow |
|---|---|---|---|---|---|---|---|
| 1777605151 | 15.56° C | 77% | 1018.3 hPa | 0 mm | - | 3 W/m² | - |
| 1777604846 | 15.56° C | 76% | 1018.3 hPa | 0 mm | - | 6 W/m² | - |
| 1777604542 | 15.56° C | 75% | 1018.2 hPa | 0 mm | - | 7 W/m² | - |
| 1777604238 | 16.11° C | 74% | 1018.3 hPa | 0 mm | - | 10 W/m² | - |
| 1777603933 | 16.11° C | 73% | 1018.2 hPa | 0 mm | - | 12 W/m² | - |
| 1777603630 | 16.67° C | 72% | 1018.2 hPa | 0 mm | - | 14 W/m² | - |
| 1777603326 | 16.67° C | 71% | 1018.4 hPa | 0 mm | - | 16 W/m² | - |
| 1777603016 | 17.22° C | 69% | 1018.2 hPa | 0 mm | - | 19 W/m² | - |
| 1777602712 | 17.22° C | 69% | 1018.2 hPa | 0 mm | - | 21 W/m² | - |
| 1777602407 | 17.78° C | 66% | 1018.3 hPa | 0 mm | - | 24 W/m² | - |
| 1777602104 | 18.33° C | 65% | 1018.1 hPa | 0 mm | - | 26 W/m² | - |
| 1777601494 | 18.89° C | 63% | 1018.2 hPa | 0 mm | - | 33 W/m² | - |
| 1777601190 | 19.44° C | 62% | 1018.4 hPa | 0 mm | - | 36 W/m² | - |
| 1777587216 | 23.33° C | 45% | 1020.5 hPa | 0 mm | - | 551 W/m² | - |
| 1777586911 | 23.89° C | 44% | 1020.3 hPa | 0 mm | - | 546 W/m² | - |
| 1777586001 | 22.78° C | 49% | 1020.6 hPa | 0 mm | - | 658 W/m² | - |
| 1777583270 | 21.11° C | 55% | 1021.1 hPa | 0 mm | - | 489 W/m² | - |
| 1777582668 | 20° C | 56% | 1021.1 hPa | 0 mm | - | 482 W/m² | - |
| 1777581449 | 20° C | 55% | 1021.4 hPa | 0 mm | - | 292 W/m² | - |
| 1777581145 | 20.56° C | 54% | 1021.3 hPa | 0 mm | - | 471 W/m² | - |
| 1777580230 | 20° C | 55% | 1021.5 hPa | 0 mm | - | 615 W/m² | - |
| 1777579927 | 20° C | 55% | 1021.5 hPa | 0 mm | - | 558 W/m² | - |
| 1777579622 | 20° C | 56% | 1021.6 hPa | 0 mm | - | 637 W/m² | - |
| 1777579316 | 20° C | 56% | 1021.6 hPa | 0 mm | - | 547 W/m² | - |
| 1777579012 | 18.89° C | 58% | 1021.8 hPa | 0 mm | - | 504 W/m² | - |
* Rain latest hour (hover to see other rain measurements)
** Current wind speed in m/s (hover to see current wind gust speed)